KBNL/BNL METAR and TAF weather

Enter ICAO airport designator
Station Type Date Time Source
KBNL METAR 2020/04/09 19:15 UTC NOAA

KBNL 091915Z AUTO 24018KT 10SM CLR 30/13 A2963 RMK AO2


Station Type Date Time Source
KBNL Decoded METAR 2020/04/09 19:15 UTC NOAA

Station name not available
Apr 09, 2020 - 03:15 PM EDT / 2020.04.09 1915 UTC
Wind: from the WSW (240 degrees) at 21 MPH (18 KT):0
Visibility: 10 mile(s):0
Sky conditions: clear
Temperature: 86 F (30 C)
Dew Point: 55 F (13 C)
Relative Humidity: 35%
Pressure (altimeter): 29.63 in. Hg (1003 hPa)
ob: KBNL 091915Z AUTO 24018KT 10SM CLR 30/13 A2963 RMK AO2
cycle: 19

Station Type Date Time Source
KBNL TAF UTC NOAA

Error!

Example: see airport list